createdAt,value
2022-09-13T00:00:49.911Z,0.00
2022-09-13T00:01:49.861Z,0.00
2022-09-13T00:02:49.857Z,0.00
2022-09-13T00:03:49.875Z,0.00
2022-09-13T00:04:49.892Z,0.00
2022-09-13T00:05:49.913Z,0.00
2022-09-13T00:06:49.926Z,0.00
2022-09-13T00:07:49.942Z,0.00
2022-09-13T00:08:50.119Z,0.00
2022-09-13T00:09:49.975Z,0.00
2022-09-13T00:10:50.000Z,0.00
2022-09-13T00:11:50.013Z,0.00
2022-09-13T00:12:50.029Z,0.00
2022-09-13T00:13:50.043Z,0.00
2022-09-13T00:14:50.063Z,0.00
2022-09-13T00:15:50.082Z,0.00
2022-09-13T00:16:50.157Z,0.00
2022-09-13T00:17:50.116Z,0.00
2022-09-13T00:18:50.256Z,0.00
2022-09-13T00:19:50.145Z,0.00
2022-09-13T00:20:50.162Z,0.00
2022-09-13T00:21:50.178Z,0.00
2022-09-13T00:22:50.200Z,0.00
2022-09-13T00:23:50.212Z,0.00
2022-09-13T00:24:50.232Z,0.00
2022-09-13T00:25:50.248Z,0.00
2022-09-13T00:26:50.262Z,0.00
2022-09-13T00:27:50.283Z,0.00
2022-09-13T00:28:50.300Z,0.00
2022-09-13T00:29:50.316Z,0.00
2022-09-13T00:30:50.331Z,0.00
2022-09-13T00:31:50.379Z,0.00
2022-09-13T00:32:50.366Z,0.00
2022-09-13T00:33:50.381Z,0.00
2022-09-13T00:34:50.400Z,0.00
2022-09-13T00:35:50.417Z,0.00
2022-09-13T00:36:50.432Z,0.00
2022-09-13T00:37:50.453Z,0.00
2022-09-13T00:38:50.470Z,0.00
2022-09-13T00:39:50.511Z,0.00
2022-09-13T00:40:50.499Z,0.00
2022-09-13T00:41:50.518Z,0.00
2022-09-13T00:42:50.534Z,0.00
2022-09-13T00:43:50.554Z,0.00
2022-09-13T00:44:50.566Z,0.00
2022-09-13T00:45:50.631Z,0.00
2022-09-13T00:46:50.602Z,0.00
2022-09-13T00:47:50.621Z,0.00
2022-09-13T00:48:50.635Z,0.00
2022-09-13T00:49:50.650Z,0.00
2022-09-13T00:50:50.669Z,0.00
2022-09-13T00:51:50.688Z,0.00
2022-09-13T00:52:50.703Z,0.00
2022-09-13T00:53:50.720Z,0.00
2022-09-13T00:54:50.736Z,0.00
2022-09-13T00:55:50.753Z,0.00
2022-09-13T00:56:50.772Z,0.00
2022-09-13T00:57:50.790Z,0.00
2022-09-13T00:58:50.810Z,0.00
2022-09-13T00:59:50.820Z,0.00
2022-09-13T01:00:50.867Z,0.00
2022-09-13T01:01:50.886Z,0.00
2022-09-13T01:02:50.870Z,0.00
2022-09-13T01:03:50.887Z,0.00
2022-09-13T01:04:50.914Z,0.00
2022-09-13T01:05:50.920Z,0.00
2022-09-13T01:06:50.945Z,0.00
2022-09-13T01:07:50.952Z,0.00
2022-09-13T01:08:50.973Z,0.00
2022-09-13T01:09:50.998Z,0.00
2022-09-13T01:10:51.004Z,0.00
2022-09-13T01:11:51.021Z,0.00
2022-09-13T01:12:51.040Z,0.00
2022-09-13T01:13:51.057Z,0.00
2022-09-13T01:14:51.071Z,0.00
2022-09-13T01:15:51.088Z,0.00
2022-09-13T01:16:51.145Z,0.00
2022-09-13T01:17:51.122Z,0.00
2022-09-13T01:18:51.140Z,0.00
2022-09-13T01:19:51.159Z,0.00
2022-09-13T01:20:51.170Z,0.00
2022-09-13T01:21:51.188Z,0.00
2022-09-13T01:22:51.206Z,0.00
2022-09-13T01:23:51.222Z,0.00
2022-09-13T01:24:51.238Z,0.00
2022-09-13T01:25:51.257Z,0.00
2022-09-13T01:26:51.271Z,0.00
2022-09-13T01:27:51.301Z,0.00
2022-09-13T01:28:51.305Z,0.00
2022-09-13T01:29:51.320Z,0.00
2022-09-13T01:30:51.340Z,0.00
2022-09-13T01:31:51.425Z,0.00
2022-09-13T01:32:51.373Z,0.00
2022-09-13T01:33:51.388Z,0.00
2022-09-13T01:34:51.405Z,0.00
2022-09-13T01:35:51.425Z,0.00
2022-09-13T01:36:51.439Z,0.00
2022-09-13T01:37:51.453Z,0.00
2022-09-13T01:38:51.477Z,0.00
2022-09-13T01:39:51.512Z,0.00
2022-09-13T01:40:51.506Z,0.00
2022-09-13T01:41:51.521Z,0.00
2022-09-13T01:42:51.538Z,0.00
2022-09-13T01:43:51.556Z,0.00
2022-09-13T01:44:51.575Z,0.00
2022-09-13T01:45:51.664Z,0.00
2022-09-13T01:46:51.604Z,0.00
2022-09-13T01:47:51.622Z,0.00
2022-09-13T01:48:51.638Z,0.00
2022-09-13T01:49:51.655Z,0.00
2022-09-13T01:50:51.673Z,0.00
2022-09-13T01:51:51.690Z,0.00
2022-09-13T01:52:51.704Z,0.00
2022-09-13T01:53:51.720Z,0.00
2022-09-13T01:54:51.737Z,0.00
2022-09-13T01:55:51.755Z,0.00
2022-09-13T01:56:51.770Z,0.00
2022-09-13T01:57:51.789Z,0.00
2022-09-13T01:58:51.805Z,0.00
2022-09-13T01:59:51.820Z,0.00
2022-09-13T02:00:51.878Z,0.00
2022-09-13T02:01:51.871Z,0.00
2022-09-13T02:02:51.869Z,0.00
2022-09-13T02:03:51.887Z,0.00
2022-09-13T02:04:51.903Z,0.00
2022-09-13T02:05:51.923Z,0.00
2022-09-13T02:06:51.936Z,0.00
2022-09-13T02:07:51.953Z,0.00
2022-09-13T02:08:51.969Z,0.00
2022-09-13T02:09:51.985Z,0.00
2022-09-13T02:10:52.003Z,0.00
2022-09-13T02:11:52.020Z,0.00
2022-09-13T02:12:52.037Z,0.00
2022-09-13T02:13:52.055Z,0.00
2022-09-13T02:14:52.069Z,0.00
2022-09-13T02:15:52.087Z,0.00
2022-09-13T02:16:52.166Z,0.00
2022-09-13T02:17:52.122Z,0.00
2022-09-13T02:18:52.135Z,0.00
2022-09-13T02:19:52.151Z,0.00
2022-09-13T02:20:52.171Z,0.00
2022-09-13T02:21:52.192Z,0.00
2022-09-13T02:22:52.200Z,0.00
2022-09-13T02:23:52.217Z,0.00
2022-09-13T02:24:52.233Z,0.00
2022-09-13T02:25:52.250Z,0.00
2022-09-13T02:26:52.267Z,0.00
2022-09-13T02:27:52.286Z,0.00
2022-09-13T02:28:52.302Z,0.00
2022-09-13T02:29:52.317Z,0.00
2022-09-13T02:30:52.332Z,0.00
2022-09-13T02:31:52.417Z,0.00
2022-09-13T02:32:52.363Z,0.00
2022-09-13T02:33:52.385Z,0.00
2022-09-13T02:34:52.397Z,0.00
2022-09-13T02:35:52.414Z,0.00
2022-09-13T02:36:52.430Z,0.00
2022-09-13T02:37:52.447Z,0.00
2022-09-13T02:38:52.465Z,0.00
2022-09-13T02:39:52.504Z,0.00
2022-09-13T02:40:52.548Z,0.00
2022-09-13T02:41:52.515Z,0.00
2022-09-13T02:42:52.527Z,0.00
2022-09-13T02:43:52.546Z,0.00
2022-09-13T02:44:52.563Z,0.00
2022-09-13T02:45:52.599Z,0.00
2022-09-13T02:46:52.598Z,0.00
2022-09-13T02:47:52.609Z,0.00
2022-09-13T02:48:52.631Z,0.00
2022-09-13T02:49:52.644Z,0.00
2022-09-13T02:50:52.659Z,0.00
2022-09-13T02:51:52.676Z,0.00
2022-09-13T02:52:52.712Z,0.00
2022-09-13T02:53:52.709Z,0.00
2022-09-13T02:54:52.726Z,0.00
2022-09-13T02:55:52.743Z,0.00
2022-09-13T02:56:52.758Z,0.00
2022-09-13T02:57:52.784Z,0.00
2022-09-13T02:58:52.791Z,0.00
2022-09-13T02:59:52.808Z,0.00
2022-09-13T03:00:52.846Z,0.00
2022-09-13T03:01:52.867Z,0.00
2022-09-13T03:02:52.857Z,0.00
2022-09-13T03:03:52.874Z,0.00
2022-09-13T03:04:52.887Z,0.00
2022-09-13T03:05:52.905Z,0.00
2022-09-13T03:06:52.921Z,0.00
2022-09-13T03:07:52.938Z,0.00
2022-09-13T03:08:52.954Z,0.00
2022-09-13T03:09:52.970Z,0.00
2022-09-13T03:10:52.988Z,0.00
2022-09-13T03:11:53.003Z,0.00
2022-09-13T03:12:53.027Z,0.00
2022-09-13T03:13:53.037Z,0.00
2022-09-13T03:14:53.052Z,0.00
2022-09-13T03:15:53.070Z,0.00
2022-09-13T03:16:53.133Z,0.00
2022-09-13T03:17:53.111Z,0.00
2022-09-13T03:18:53.117Z,0.00
2022-09-13T03:19:53.133Z,0.00
2022-09-13T03:20:53.151Z,0.00
2022-09-13T03:21:53.169Z,0.00
2022-09-13T03:22:53.184Z,0.00
2022-09-13T03:23:53.203Z,0.00
2022-09-13T03:24:53.229Z,0.00
2022-09-13T03:25:53.235Z,0.00
2022-09-13T03:26:53.250Z,0.00
2022-09-13T03:27:53.274Z,0.00
2022-09-13T03:28:53.294Z,0.00
2022-09-13T03:29:53.299Z,0.00
2022-09-13T03:30:53.316Z,0.00
2022-09-13T03:31:53.408Z,0.00
2022-09-13T03:32:53.348Z,0.00
2022-09-13T03:33:53.368Z,0.00
2022-09-13T03:34:53.380Z,0.00
2022-09-13T03:35:53.396Z,0.00
2022-09-13T03:36:53.413Z,0.00
2022-09-13T03:37:53.436Z,0.00
2022-09-13T03:38:53.446Z,0.00
2022-09-13T03:39:53.513Z,0.00
2022-09-13T03:40:53.478Z,0.00
2022-09-13T03:41:53.497Z,0.00
2022-09-13T03:42:53.514Z,0.00
2022-09-13T03:43:53.530Z,0.00
2022-09-13T03:44:53.545Z,0.00
2022-09-13T03:45:53.610Z,0.00
2022-09-13T03:46:53.578Z,0.00
2022-09-13T03:47:53.594Z,0.00
2022-09-13T03:48:53.612Z,0.00
2022-09-13T03:49:53.629Z,0.00
2022-09-13T03:50:53.643Z,0.00
2022-09-13T03:51:53.660Z,0.00
2022-09-13T03:52:53.676Z,0.00
2022-09-13T03:53:53.692Z,0.00
2022-09-13T03:54:53.708Z,0.00
2022-09-13T03:55:53.726Z,0.00
2022-09-13T03:56:53.743Z,0.00
2022-09-13T03:57:53.757Z,0.00
2022-09-13T03:58:53.773Z,0.00
2022-09-13T03:59:53.790Z,0.00
2022-09-13T04:00:53.828Z,0.00
2022-09-13T04:01:53.870Z,0.00
2022-09-13T04:02:53.837Z,0.00
2022-09-13T04:03:56.841Z,0.00
2022-09-13T04:04:53.874Z,0.00
2022-09-13T04:05:53.889Z,0.00
2022-09-13T04:06:53.907Z,0.00
2022-09-13T04:07:53.921Z,0.00
2022-09-13T04:08:53.937Z,0.00
2022-09-13T04:09:53.953Z,0.00
2022-09-13T04:10:53.967Z,0.00
2022-09-13T04:11:53.987Z,0.00
2022-09-13T04:12:54.003Z,0.00
2022-09-13T04:13:54.019Z,0.00
2022-09-13T04:14:54.036Z,0.00
2022-09-13T04:15:54.052Z,0.00
2022-09-13T04:16:54.068Z,0.00
2022-09-13T04:17:54.089Z,0.00
2022-09-13T04:18:54.102Z,0.00
2022-09-13T04:19:54.119Z,0.00
2022-09-13T04:20:54.140Z,0.00
2022-09-13T04:21:54.149Z,0.00
2022-09-13T04:22:54.166Z,0.00
2022-09-13T04:23:54.185Z,0.00
2022-09-13T04:24:54.199Z,0.00
2022-09-13T04:25:54.215Z,0.00
2022-09-13T04:26:54.239Z,0.00
2022-09-13T04:27:54.251Z,0.00
2022-09-13T04:28:54.267Z,0.00
2022-09-13T04:29:54.283Z,0.00
2022-09-13T04:30:54.300Z,0.00
2022-09-13T04:31:54.354Z,5.63
2022-09-13T04:32:54.333Z,5.63
2022-09-13T04:33:54.351Z,5.63
2022-09-13T04:34:54.370Z,5.63
2022-09-13T04:35:54.384Z,5.63
2022-09-13T04:36:54.400Z,5.63
2022-09-13T04:37:54.416Z,5.63
2022-09-13T04:38:54.433Z,5.63
2022-09-13T04:39:54.528Z,5.63
2022-09-13T04:40:54.465Z,5.63
2022-09-13T04:41:54.486Z,5.63
2022-09-13T04:42:54.501Z,11.25
2022-09-13T04:43:54.517Z,11.25
2022-09-13T04:44:54.533Z,11.25
2022-09-13T04:45:54.608Z,11.25
2022-09-13T04:46:54.566Z,11.25
2022-09-13T04:47:54.584Z,11.25
2022-09-13T04:48:54.600Z,16.88
2022-09-13T04:49:54.621Z,16.88
2022-09-13T04:50:54.635Z,16.88
2022-09-13T04:51:54.651Z,16.88
2022-09-13T04:52:54.669Z,22.50
2022-09-13T04:53:54.684Z,22.50
2022-09-13T04:54:54.703Z,22.50
2022-09-13T04:55:54.720Z,28.13
2022-09-13T04:56:54.735Z,28.13
2022-09-13T04:57:54.755Z,28.13
2022-09-13T04:58:54.771Z,28.13
2022-09-13T04:59:54.785Z,28.13
2022-09-13T05:00:54.847Z,33.75
2022-09-13T05:01:54.901Z,33.75
2022-09-13T05:02:54.836Z,39.38
2022-09-13T05:03:54.855Z,39.38
2022-09-13T05:04:54.869Z,45.00
2022-09-13T05:05:54.887Z,45.00
2022-09-13T05:06:54.903Z,45.00
2022-09-13T05:07:54.920Z,39.38
2022-09-13T05:08:54.942Z,39.38
2022-09-13T05:09:54.956Z,39.38
2022-09-13T05:10:54.972Z,39.38
2022-09-13T05:11:54.989Z,39.38
2022-09-13T05:12:55.007Z,45.00
2022-09-13T05:13:55.026Z,50.63
2022-09-13T05:14:55.040Z,56.25
2022-09-13T05:15:55.087Z,61.88
2022-09-13T05:16:55.094Z,73.13
2022-09-13T05:17:55.097Z,78.75
2022-09-13T05:18:55.110Z,84.38
2022-09-13T05:19:55.128Z,90.00
2022-09-13T05:20:55.164Z,101.25
2022-09-13T05:21:55.161Z,101.25
2022-09-13T05:22:55.179Z,101.25
2022-09-13T05:23:55.202Z,101.25
2022-09-13T05:24:55.220Z,84.38
2022-09-13T05:25:55.231Z,67.50
2022-09-13T05:26:55.250Z,61.88
2022-09-13T05:27:55.269Z,56.25
2022-09-13T05:28:55.284Z,56.25
2022-09-13T05:29:55.301Z,56.25
2022-09-13T05:30:55.355Z,67.50
2022-09-13T05:31:55.339Z,67.50
2022-09-13T05:32:55.354Z,67.50
2022-09-13T05:33:55.373Z,61.88
2022-09-13T05:34:55.388Z,56.25
2022-09-13T05:35:55.406Z,50.63
2022-09-13T05:36:55.425Z,45.00
2022-09-13T05:37:55.445Z,39.38
2022-09-13T05:39:18.712Z,33.75
2022-09-13T05:40:10.753Z,33.75
2022-09-13T05:40:55.543Z,33.75
2022-09-13T05:41:55.513Z,33.75
2022-09-13T05:42:55.535Z,28.13
2022-09-13T05:43:59.411Z,28.13
2022-09-13T05:44:55.565Z,22.50
2022-09-13T05:45:55.614Z,22.50
2022-09-13T05:46:55.603Z,16.88
2022-09-13T05:47:55.619Z,16.88
2022-09-13T05:48:55.638Z,16.88
2022-09-13T05:50:09.908Z,16.88
2022-09-13T05:50:58.162Z,16.88
2022-09-13T05:51:55.689Z,16.88
2022-09-13T05:52:55.710Z,22.50
2022-09-13T05:53:55.725Z,28.13
2022-09-13T05:54:55.744Z,33.75
2022-09-13T05:55:55.758Z,45.00
2022-09-13T05:56:55.778Z,61.88
2022-09-13T05:57:55.798Z,73.13
2022-09-13T05:58:55.813Z,78.75
2022-09-13T05:59:55.832Z,73.13
2022-09-13T06:00:55.848Z,61.88
2022-09-13T06:01:55.938Z,50.63
2022-09-13T06:02:55.927Z,45.00
2022-09-13T06:03:55.900Z,45.00
2022-09-13T06:04:55.918Z,45.00
2022-09-13T06:05:55.935Z,45.00
2022-09-13T06:06:55.953Z,45.00
2022-09-13T06:07:55.971Z,45.00
2022-09-13T06:08:55.993Z,45.00
2022-09-13T06:09:56.005Z,50.63
2022-09-13T06:10:56.021Z,50.63
2022-09-13T06:11:56.038Z,56.25
2022-09-13T06:12:56.056Z,56.25
2022-09-13T06:13:56.076Z,61.88
2022-09-13T06:14:56.097Z,61.88
2022-09-13T06:15:56.128Z,56.25
2022-09-13T06:16:56.124Z,56.25
2022-09-13T06:17:56.144Z,50.63
2022-09-13T06:18:56.159Z,45.00
2022-09-13T06:19:56.179Z,45.00
2022-09-13T06:20:56.194Z,39.38
2022-09-13T06:21:56.212Z,33.75
2022-09-13T06:22:56.229Z,33.75
2022-09-13T06:23:56.246Z,33.75
2022-09-13T06:24:56.264Z,28.13
2022-09-13T06:25:56.278Z,28.13
2022-09-13T06:26:56.297Z,28.13
2022-09-13T06:27:56.314Z,33.75
2022-09-13T06:28:56.330Z,33.75
2022-09-13T06:29:56.348Z,33.75
2022-09-13T06:30:56.385Z,39.38
2022-09-13T06:31:56.383Z,56.25
2022-09-13T06:32:56.405Z,78.75
2022-09-13T06:33:56.418Z,112.50
2022-09-13T06:34:56.442Z,146.25
2022-09-13T06:35:56.455Z,174.38
2022-09-13T06:36:56.469Z,185.63
2022-09-13T06:37:56.483Z,168.75
2022-09-13T06:38:56.503Z,140.63
2022-09-13T06:39:56.574Z,118.13
2022-09-13T06:40:56.539Z,106.88
2022-09-13T06:41:56.555Z,95.63
2022-09-13T06:42:56.572Z,90.00
2022-09-13T06:43:56.593Z,95.63
2022-09-13T06:44:56.605Z,112.50
2022-09-13T06:45:56.639Z,140.63
2022-09-13T06:46:56.640Z,180.00
2022-09-13T06:47:56.658Z,219.38
2022-09-13T06:48:56.676Z,258.75
2022-09-13T06:49:56.693Z,275.63
2022-09-13T06:50:56.709Z,264.38
2022-09-13T06:51:56.730Z,258.75
2022-09-13T06:52:56.744Z,258.75
2022-09-13T06:53:56.905Z,270.00
2022-09-13T06:54:56.778Z,286.88
2022-09-13T06:55:56.799Z,292.50
2022-09-13T06:56:56.813Z,298.13
2022-09-13T06:57:56.832Z,303.75
2022-09-13T06:58:56.850Z,315.00
2022-09-13T06:59:56.869Z,331.88
2022-09-13T07:00:56.894Z,360.00
2022-09-13T07:01:56.953Z,416.25
2022-09-13T07:02:56.924Z,461.25
2022-09-13T07:03:56.938Z,483.75
2022-09-13T07:04:56.955Z,478.13
2022-09-13T07:05:56.973Z,421.88
2022-09-13T07:06:56.994Z,343.13
2022-09-13T07:07:57.009Z,309.38
2022-09-13T07:08:57.028Z,315.00
2022-09-13T07:09:57.047Z,326.25
2022-09-13T07:10:57.082Z,298.13
2022-09-13T07:11:57.088Z,281.25
2022-09-13T07:12:57.103Z,281.25
2022-09-13T07:13:57.127Z,264.38
2022-09-13T07:14:57.166Z,225.00
2022-09-13T07:15:57.218Z,208.13
2022-09-13T07:16:57.175Z,219.38
2022-09-13T07:17:57.193Z,241.88
2022-09-13T07:18:57.212Z,270.00
2022-09-13T07:19:57.232Z,286.88
2022-09-13T07:20:57.249Z,281.25
2022-09-13T07:21:57.271Z,275.63
2022-09-13T07:22:57.288Z,264.38
2022-09-13T07:23:57.305Z,275.63
2022-09-13T07:24:57.322Z,309.38
2022-09-13T07:25:57.343Z,326.25
2022-09-13T07:26:57.365Z,331.88
2022-09-13T07:27:57.383Z,331.88
2022-09-13T07:28:57.400Z,343.13
2022-09-13T07:29:57.420Z,354.38
2022-09-13T07:30:57.454Z,354.38
2022-09-13T07:31:57.456Z,365.63
2022-09-13T07:32:57.474Z,382.50
2022-09-13T07:33:57.494Z,393.75
2022-09-13T07:34:57.514Z,416.25
2022-09-13T07:35:57.531Z,444.38
2022-09-13T07:36:57.549Z,438.75
2022-09-13T07:37:57.569Z,438.75
2022-09-13T07:38:57.588Z,444.38
2022-09-13T07:39:57.630Z,438.75
2022-09-13T07:40:57.627Z,433.13
2022-09-13T07:41:57.645Z,433.13
2022-09-13T07:42:57.666Z,421.88
2022-09-13T07:43:57.684Z,410.63
2022-09-13T07:44:57.703Z,399.38
2022-09-13T07:45:57.759Z,388.13
2022-09-13T07:46:57.744Z,382.50
2022-09-13T07:47:57.759Z,371.25
2022-09-13T07:48:57.782Z,382.50
2022-09-13T07:49:57.802Z,399.38
2022-09-13T07:50:57.820Z,421.88
2022-09-13T07:51:57.841Z,433.13
2022-09-13T07:52:57.859Z,433.13
2022-09-13T07:53:57.970Z,433.13
2022-09-13T07:54:57.900Z,444.38
2022-09-13T07:55:57.919Z,450.00
2022-09-13T07:56:57.937Z,455.63
2022-09-13T07:57:57.958Z,450.00
2022-09-13T07:58:57.979Z,455.63
2022-09-13T07:59:57.998Z,478.13
2022-09-13T08:00:58.065Z,500.63
2022-09-13T08:01:58.120Z,511.88
2022-09-13T08:02:58.061Z,511.88
2022-09-13T08:03:58.079Z,500.63
2022-09-13T08:04:58.107Z,478.13
2022-09-13T08:05:58.127Z,461.25
2022-09-13T08:06:58.140Z,455.63
2022-09-13T08:07:58.160Z,444.38
2022-09-13T08:08:58.179Z,438.75
2022-09-13T08:09:58.198Z,421.88
2022-09-13T08:10:58.219Z,421.88
2022-09-13T08:11:58.240Z,421.88
2022-09-13T08:12:58.259Z,433.13
2022-09-13T08:13:58.291Z,455.63
2022-09-13T08:14:58.300Z,461.25
2022-09-13T08:15:58.388Z,483.75
2022-09-13T08:16:58.340Z,500.63
2022-09-13T08:17:58.362Z,528.75
2022-09-13T08:18:58.382Z,585.00
2022-09-13T08:19:58.403Z,635.63
2022-09-13T08:20:58.424Z,658.13
2022-09-13T08:21:58.443Z,630.00
2022-09-13T08:22:58.463Z,573.75
2022-09-13T08:23:58.485Z,523.13
2022-09-13T08:24:58.504Z,495.00
2022-09-13T08:25:58.525Z,483.75
2022-09-13T08:26:58.546Z,472.50
2022-09-13T08:27:58.567Z,461.25
2022-09-13T08:28:58.587Z,478.13
2022-09-13T08:29:58.608Z,489.38
2022-09-13T08:30:58.679Z,489.38
2022-09-13T08:31:58.650Z,489.38
2022-09-13T08:32:58.669Z,489.38
2022-09-13T08:33:58.692Z,495.00
2022-09-13T08:34:58.711Z,511.88
2022-09-13T08:35:58.733Z,528.75
2022-09-13T08:36:58.757Z,556.88
2022-09-13T08:37:58.775Z,596.25
2022-09-13T08:38:58.795Z,613.13
2022-09-13T08:39:58.853Z,601.88
2022-09-13T08:40:58.836Z,590.63
2022-09-13T08:41:58.859Z,641.25
2022-09-13T08:42:58.877Z,680.63
2022-09-13T08:43:58.901Z,703.13
2022-09-13T08:44:58.927Z,697.50
2022-09-13T08:45:58.966Z,663.75
2022-09-13T08:46:58.964Z,635.63
2022-09-13T08:47:58.986Z,663.75
2022-09-13T08:48:59.024Z,714.38
2022-09-13T08:49:59.026Z,759.38
2022-09-13T08:50:59.048Z,770.63
2022-09-13T08:51:59.084Z,765.00
2022-09-13T08:52:59.088Z,742.50
2022-09-13T08:53:59.110Z,736.88
2022-09-13T08:54:59.134Z,759.38
2022-09-13T08:55:59.155Z,770.63
2022-09-13T08:56:59.177Z,776.25
2022-09-13T08:57:59.198Z,793.13
2022-09-13T08:58:59.220Z,815.63
2022-09-13T08:59:59.262Z,838.13
2022-09-13T09:00:59.328Z,843.75
2022-09-13T09:01:59.285Z,826.88
2022-09-13T09:02:59.370Z,798.75
2022-09-13T09:03:59.329Z,787.50
2022-09-13T09:04:59.351Z,765.00
2022-09-13T09:05:59.373Z,753.75
2022-09-13T09:06:59.398Z,748.13
2022-09-13T09:07:59.425Z,720.00
2022-09-13T09:08:59.441Z,725.63
2022-09-13T09:09:59.463Z,742.50
2022-09-13T09:10:59.488Z,810.00
2022-09-13T09:11:59.510Z,838.13
2022-09-13T09:12:59.528Z,838.13
2022-09-13T09:13:59.551Z,793.13
2022-09-13T09:14:59.575Z,765.00
2022-09-13T09:15:59.666Z,714.38
2022-09-13T09:16:59.621Z,663.75
2022-09-13T09:17:59.644Z,624.38
2022-09-13T09:18:59.665Z,590.63
2022-09-13T09:19:59.688Z,613.13
2022-09-13T09:20:59.711Z,635.63
2022-09-13T09:21:59.733Z,646.88
2022-09-13T09:22:59.763Z,669.38
2022-09-13T09:23:59.781Z,630.00
2022-09-13T09:24:59.801Z,579.38
2022-09-13T09:25:59.827Z,534.38
2022-09-13T09:26:59.849Z,495.00
2022-09-13T09:27:59.873Z,511.88
2022-09-13T09:28:59.893Z,596.25
2022-09-13T09:29:59.915Z,641.25
2022-09-13T09:31:00.019Z,635.63
2022-09-13T09:31:59.971Z,663.75
2022-09-13T09:32:59.983Z,596.25
2022-09-13T09:34:00.005Z,613.13
2022-09-13T09:35:00.029Z,669.38
2022-09-13T09:36:00.059Z,725.63
2022-09-13T09:37:00.077Z,832.50
2022-09-13T09:38:00.098Z,871.88
2022-09-13T09:39:00.124Z,843.75
2022-09-13T09:40:00.223Z,798.75
2022-09-13T09:41:00.165Z,748.13
2022-09-13T09:42:00.194Z,826.88
2022-09-13T09:43:00.215Z,838.13
2022-09-13T09:44:00.247Z,843.75
2022-09-13T09:45:00.273Z,871.88
2022-09-13T09:46:00.319Z,911.25
2022-09-13T09:47:00.304Z,939.38
2022-09-13T09:48:00.329Z,961.88
2022-09-13T09:49:00.349Z,984.38
2022-09-13T09:50:00.373Z,939.38
2022-09-13T09:51:00.398Z,900.00
2022-09-13T09:52:00.421Z,826.88
2022-09-13T09:53:00.444Z,826.88
2022-09-13T09:54:00.467Z,787.50
2022-09-13T09:55:00.491Z,776.25
2022-09-13T09:56:00.516Z,736.88
2022-09-13T09:57:00.538Z,635.63
2022-09-13T09:58:00.563Z,630.00
2022-09-13T09:59:00.593Z,765.00
2022-09-13T10:00:00.608Z,815.63
2022-09-13T10:01:00.700Z,742.50
2022-09-13T10:02:00.709Z,607.50
2022-09-13T10:03:00.683Z,523.13
2022-09-13T10:04:00.707Z,517.50
2022-09-13T10:05:00.729Z,517.50
2022-09-13T10:06:00.757Z,551.25
2022-09-13T10:07:00.775Z,585.00
2022-09-13T10:08:00.800Z,652.50
2022-09-13T10:09:00.823Z,663.75
2022-09-13T10:10:00.847Z,787.50
2022-09-13T10:11:00.873Z,922.50
2022-09-13T10:12:00.900Z,916.88
2022-09-13T10:13:00.917Z,973.13
2022-09-13T10:14:00.947Z,1091.25
2022-09-13T10:15:00.971Z,1108.13
2022-09-13T10:16:00.989Z,1018.13
2022-09-13T10:17:01.069Z,911.25
2022-09-13T10:18:01.037Z,905.63
2022-09-13T10:19:01.062Z,973.13
2022-09-13T10:20:01.091Z,928.13
2022-09-13T10:21:01.111Z,703.13
2022-09-13T10:22:01.134Z,573.75
2022-09-13T10:23:01.159Z,596.25
2022-09-13T10:24:01.184Z,613.13
2022-09-13T10:25:01.208Z,601.88
2022-09-13T10:26:01.232Z,613.13
2022-09-13T10:27:01.261Z,624.38
2022-09-13T10:28:01.282Z,573.75
2022-09-13T10:29:01.307Z,573.75
2022-09-13T10:30:01.331Z,646.88
2022-09-13T10:31:01.404Z,714.38
2022-09-13T10:32:01.378Z,787.50
2022-09-13T10:33:01.403Z,759.38
2022-09-13T10:34:01.427Z,793.13
2022-09-13T10:35:01.451Z,810.00
2022-09-13T10:36:01.475Z,810.00
2022-09-13T10:37:01.499Z,759.38
2022-09-13T10:38:01.530Z,652.50
2022-09-13T10:39:01.550Z,562.50
2022-09-13T10:40:01.688Z,528.75
2022-09-13T10:41:01.600Z,523.13
2022-09-13T10:42:01.621Z,517.50
2022-09-13T10:43:01.645Z,528.75
2022-09-13T10:44:02.496Z,556.88
2022-09-13T10:45:01.691Z,652.50
2022-09-13T10:46:01.789Z,770.63
2022-09-13T10:47:01.743Z,742.50
2022-09-13T10:48:01.767Z,652.50
2022-09-13T10:49:01.790Z,495.00
2022-09-13T10:50:01.815Z,382.50
2022-09-13T10:51:01.840Z,382.50
2022-09-13T10:52:01.865Z,489.38
2022-09-13T10:53:01.887Z,523.13
2022-09-13T10:54:01.915Z,500.63
2022-09-13T10:55:01.937Z,450.00
2022-09-13T10:56:01.959Z,360.00
2022-09-13T10:57:01.984Z,326.25
2022-09-13T10:58:02.009Z,270.00
2022-09-13T10:59:02.032Z,225.00
2022-09-13T11:00:02.058Z,286.88
2022-09-13T11:01:02.102Z,337.50
2022-09-13T11:02:02.106Z,275.63
2022-09-13T11:03:02.128Z,208.13
2022-09-13T11:04:02.184Z,326.25
2022-09-13T11:05:02.174Z,360.00
2022-09-13T11:06:02.199Z,326.25
2022-09-13T11:07:02.368Z,348.75
2022-09-13T11:08:02.250Z,309.38
2022-09-13T11:09:02.270Z,247.50
2022-09-13T11:10:02.294Z,241.88
2022-09-13T11:11:02.320Z,253.13
2022-09-13T11:12:02.344Z,236.25
2022-09-13T11:13:02.364Z,208.13
2022-09-13T11:14:02.391Z,180.00
2022-09-13T11:15:02.414Z,168.75
2022-09-13T11:16:02.440Z,202.50
2022-09-13T11:17:02.458Z,281.25
2022-09-13T11:18:02.480Z,354.38
2022-09-13T11:19:02.501Z,354.38
2022-09-13T11:20:02.525Z,399.38
2022-09-13T11:21:02.550Z,410.63
2022-09-13T11:22:02.570Z,382.50
2022-09-13T11:23:02.593Z,360.00
2022-09-13T11:24:02.618Z,337.50
2022-09-13T11:25:02.643Z,326.25
2022-09-13T11:26:02.660Z,303.75
2022-09-13T11:27:02.686Z,258.75
2022-09-13T11:28:02.708Z,241.88
2022-09-13T11:29:02.727Z,236.25
2022-09-13T11:30:02.748Z,241.88
2022-09-13T11:31:02.770Z,298.13
2022-09-13T11:32:02.900Z,365.63
2022-09-13T11:33:02.818Z,444.38
2022-09-13T11:34:02.836Z,427.50
2022-09-13T11:35:02.856Z,354.38
2022-09-13T11:36:02.880Z,315.00
2022-09-13T11:37:02.921Z,331.88
2022-09-13T11:38:02.930Z,315.00
2022-09-13T11:39:02.946Z,303.75
2022-09-13T11:40:03.043Z,303.75
2022-09-13T11:41:02.996Z,309.38
2022-09-13T11:42:03.026Z,303.75
2022-09-13T11:43:03.031Z,298.13
2022-09-13T11:44:03.054Z,298.13
2022-09-13T11:45:03.074Z,303.75
2022-09-13T11:46:03.153Z,309.38
2022-09-13T11:47:03.118Z,298.13
2022-09-13T11:48:03.147Z,281.25
2022-09-13T11:49:03.160Z,286.88
2022-09-13T11:50:03.183Z,275.63
2022-09-13T11:51:03.203Z,253.13
2022-09-13T11:52:03.223Z,264.38
2022-09-13T11:53:03.247Z,275.63
2022-09-13T11:54:03.266Z,286.88
2022-09-13T11:55:03.288Z,343.13
2022-09-13T11:56:03.313Z,444.38
2022-09-13T11:57:03.331Z,590.63
2022-09-13T11:58:03.355Z,652.50
2022-09-13T11:59:03.375Z,562.50
2022-09-13T12:00:03.402Z,585.00
2022-09-13T12:01:03.420Z,517.50
2022-09-13T12:02:03.544Z,466.88
2022-09-13T12:03:03.580Z,410.63
2022-09-13T12:04:03.481Z,365.63
2022-09-13T12:05:21.442Z,393.75
2022-09-13T12:06:03.527Z,410.63
2022-09-13T12:07:03.548Z,371.25
2022-09-13T12:08:03.570Z,382.50
2022-09-13T12:09:03.589Z,405.00
2022-09-13T12:10:03.612Z,455.63
2022-09-13T12:11:03.633Z,461.25
2022-09-13T12:12:03.656Z,472.50
2022-09-13T12:13:03.678Z,540.00
2022-09-13T12:14:03.700Z,551.25
2022-09-13T12:15:03.721Z,573.75
2022-09-13T12:16:03.745Z,652.50
2022-09-13T12:17:03.765Z,725.63
2022-09-13T12:18:03.788Z,675.00
2022-09-13T12:19:03.812Z,573.75
2022-09-13T12:20:03.840Z,506.25
2022-09-13T12:21:03.856Z,495.00
2022-09-13T12:22:03.884Z,517.50
2022-09-13T12:23:03.901Z,523.13
2022-09-13T12:24:03.923Z,472.50
2022-09-13T12:25:03.945Z,461.25
2022-09-13T12:26:03.967Z,472.50
2022-09-13T12:27:03.988Z,427.50
2022-09-13T12:28:04.012Z,365.63
2022-09-13T12:29:04.039Z,303.75
2022-09-13T12:30:04.056Z,258.75
2022-09-13T12:31:04.077Z,241.88
2022-09-13T12:32:04.191Z,253.13
2022-09-13T12:33:04.122Z,275.63
2022-09-13T12:34:04.145Z,264.38
2022-09-13T12:35:04.175Z,241.88
2022-09-13T12:36:04.190Z,230.63
2022-09-13T12:37:04.212Z,236.25
2022-09-13T12:38:04.235Z,236.25
2022-09-13T12:39:04.259Z,236.25
2022-09-13T12:40:04.330Z,241.88
2022-09-13T12:41:04.303Z,292.50
2022-09-13T12:42:04.324Z,365.63
2022-09-13T12:43:04.346Z,405.00
2022-09-13T12:44:04.368Z,360.00
2022-09-13T12:45:04.389Z,354.38
2022-09-13T12:46:04.461Z,421.88
2022-09-13T12:47:04.433Z,511.88
2022-09-13T12:48:04.458Z,433.13
2022-09-13T12:49:04.484Z,326.25
2022-09-13T12:51:04.525Z,275.63